createdAt,value
2022-08-22T00:01:29.441Z,3.50
2022-08-22T00:02:45.056Z,1.63
2022-08-22T00:02:57.904Z,3.30
2022-08-22T00:03:10.197Z,2.90
2022-08-22T00:03:10.729Z,3.00
2022-08-22T00:03:12.559Z,3.40
2022-08-22T00:04:07.771Z,4.43
2022-08-22T00:06:46.038Z,3.97
2022-08-22T00:09:29.356Z,5.00
2022-08-22T00:12:07.289Z,3.60
2022-08-22T00:14:41.074Z,4.60
2022-08-22T00:17:25.076Z,3.50
2022-08-22T00:20:03.005Z,3.53
2022-08-22T00:22:40.337Z,3.93
2022-08-22T00:25:30.107Z,4.27
2022-08-22T00:28:02.697Z,3.70
2022-08-22T00:30:35.608Z,4.37
2022-08-22T00:33:11.374Z,3.83
2022-08-22T00:35:45.240Z,4.10
2022-08-22T00:38:20.659Z,4.67
2022-08-22T00:40:58.224Z,4.00
2022-08-22T00:43:58.219Z,4.93
2022-08-22T00:46:47.711Z,4.03
2022-08-22T00:49:33.649Z,4.60
2022-08-22T00:52:21.779Z,3.90
2022-08-22T00:55:25.294Z,4.37
2022-08-22T00:58:16.396Z,4.87
2022-08-22T01:00:48.843Z,4.27
2022-08-22T01:03:51.079Z,4.77
2022-08-22T01:06:28.056Z,4.77
2022-08-22T01:09:04.765Z,4.23
2022-08-22T01:11:57.978Z,4.97
2022-08-22T01:14:45.465Z,5.73
2022-08-22T01:17:52.299Z,4.83
2022-08-22T01:21:02.121Z,4.47
2022-08-22T01:23:50.934Z,5.07
2022-08-22T01:26:50.648Z,4.90
2022-08-22T01:29:44.190Z,5.27
2022-08-22T01:33:03.970Z,4.60
2022-08-22T01:36:04.579Z,4.63
2022-08-22T01:38:51.792Z,5.47
2022-08-22T01:41:56.127Z,5.57
2022-08-22T01:45:04.484Z,5.20
2022-08-22T01:47:39.375Z,4.70
2022-08-22T01:50:19.275Z,5.30
2022-08-22T01:52:51.625Z,5.23
2022-08-22T01:55:31.126Z,4.93
2022-08-22T01:58:01.755Z,5.27
2022-08-22T02:00:35.944Z,5.43
2022-08-22T02:03:18.498Z,4.70
2022-08-22T02:05:53.357Z,5.30
2022-08-22T02:08:31.424Z,5.27
2022-08-22T02:11:05.949Z,5.13
2022-08-22T02:13:55.336Z,5.00
2022-08-22T02:16:33.522Z,5.30
2022-08-22T02:19:19.112Z,4.37
2022-08-22T02:21:55.171Z,4.70
2022-08-22T02:24:37.848Z,5.43
2022-08-22T02:27:16.792Z,4.40
2022-08-22T02:29:51.218Z,4.87
2022-08-22T02:32:26.136Z,5.20
2022-08-22T02:35:03.781Z,5.90
2022-08-22T02:37:37.484Z,5.07
2022-08-22T02:40:13.394Z,4.97
2022-08-22T02:42:46.064Z,5.70
2022-08-22T02:45:23.368Z,4.50
2022-08-22T02:48:00.297Z,5.43
2022-08-22T02:50:47.780Z,5.50
2022-08-22T02:53:22.036Z,5.60
2022-08-22T02:55:58.380Z,5.10
2022-08-22T02:58:36.414Z,5.30
2022-08-22T03:01:22.918Z,4.50
2022-08-22T03:03:52.336Z,5.00
2022-08-22T03:06:40.682Z,6.33
2022-08-22T03:09:24.012Z,5.47
2022-08-22T03:12:08.486Z,5.27
2022-08-22T03:14:43.334Z,5.23
2022-08-22T03:17:18.751Z,5.40
2022-08-22T03:19:54.714Z,5.83
2022-08-22T03:22:29.846Z,5.30
2022-08-22T03:25:07.358Z,5.83
2022-08-22T03:27:42.607Z,6.63
2022-08-22T03:30:18.124Z,5.97
2022-08-22T03:32:52.720Z,5.60
2022-08-22T03:35:28.139Z,5.83
2022-08-22T03:38:09.882Z,5.97
2022-08-22T03:40:52.840Z,6.50
2022-08-22T03:43:48.631Z,5.50
2022-08-22T03:46:47.939Z,6.10
2022-08-22T03:49:37.401Z,5.30
2022-08-22T03:52:25.374Z,6.00
2022-08-22T03:55:11.164Z,5.27
2022-08-22T03:58:19.209Z,5.70
2022-08-22T04:01:39.112Z,5.40
2022-08-22T04:04:31.680Z,5.67
2022-08-22T04:07:32.228Z,5.70
2022-08-22T04:10:29.685Z,5.30
2022-08-22T04:13:17.733Z,6.13
2022-08-22T04:15:59.513Z,6.63
2022-08-22T04:18:53.155Z,5.60
2022-08-22T04:21:41.205Z,7.40
2022-08-22T04:24:39.762Z,7.80
2022-08-22T04:27:19.125Z,7.37
2022-08-22T04:29:53.387Z,6.83
2022-08-22T04:32:28.695Z,7.13
2022-08-22T04:35:05.963Z,6.80
2022-08-22T04:37:40.220Z,6.60
2022-08-22T04:40:15.813Z,6.20
2022-08-22T04:42:47.975Z,8.37
2022-08-22T04:45:19.809Z,8.03
2022-08-22T04:47:55.642Z,7.30
2022-08-22T04:50:33.748Z,6.90
2022-08-22T04:53:13.766Z,6.80
2022-08-22T04:55:55.181Z,7.20
2022-08-22T04:58:33.948Z,8.30
2022-08-22T05:01:13.382Z,6.60
2022-08-22T05:03:48.983Z,7.27
2022-08-22T05:06:21.740Z,8.30
2022-08-22T05:08:54.018Z,7.40
2022-08-22T05:11:24.898Z,7.70
2022-08-22T05:13:56.799Z,7.20
2022-08-22T05:16:28.241Z,7.13
2022-08-22T05:19:00.441Z,7.00
2022-08-22T05:21:33.720Z,8.00
2022-08-22T05:24:05.839Z,6.37
2022-08-22T05:26:39.103Z,5.60
2022-08-22T05:29:10.432Z,4.90
2022-08-22T05:31:43.119Z,6.00
2022-08-22T05:34:14.097Z,5.33
2022-08-22T05:36:47.526Z,6.00
2022-08-22T05:39:19.830Z,5.53
2022-08-22T05:41:49.093Z,6.60
2022-08-22T05:44:22.545Z,5.07
2022-08-22T05:46:56.065Z,5.70
2022-08-22T05:49:32.839Z,5.67
2022-08-22T05:52:10.327Z,5.33
2022-08-22T05:54:52.081Z,5.53
2022-08-22T05:57:28.871Z,4.30
2022-08-22T06:00:03.922Z,3.90
2022-08-22T06:02:52.054Z,3.63
2022-08-22T06:05:25.686Z,4.87
2022-08-22T06:07:59.567Z,4.20
2022-08-22T06:10:35.168Z,4.90
2022-08-22T06:13:11.540Z,3.77
2022-08-22T06:15:47.804Z,4.00
2022-08-22T06:18:20.758Z,4.80
2022-08-22T06:20:53.425Z,4.13
2022-08-22T06:23:25.900Z,4.87
2022-08-22T06:25:57.324Z,4.87
2022-08-22T06:28:29.280Z,4.67
2022-08-22T06:30:58.642Z,5.33
2022-08-22T06:33:29.046Z,4.70
2022-08-22T06:36:20.630Z,4.97
2022-08-22T06:39:04.030Z,5.03
2022-08-22T06:41:35.475Z,5.40
2022-08-22T06:44:05.684Z,4.93
2022-08-22T06:46:37.064Z,4.47
2022-08-22T06:49:07.448Z,7.50
2022-08-22T06:51:38.052Z,4.60
2022-08-22T06:54:15.667Z,4.17
2022-08-22T06:56:46.904Z,5.10
2022-08-22T06:59:19.119Z,5.70
2022-08-22T07:01:52.043Z,4.37
2022-08-22T07:04:26.381Z,5.30
2022-08-22T07:06:55.995Z,5.60
2022-08-22T07:09:28.588Z,5.47
2022-08-22T07:12:00.379Z,8.10
2022-08-22T07:14:33.584Z,5.80
2022-08-22T07:17:04.365Z,4.97
2022-08-22T07:19:35.102Z,4.87
2022-08-22T07:22:12.764Z,5.00
2022-08-22T07:24:48.109Z,5.33
2022-08-22T07:27:27.083Z,6.57
2022-08-22T07:30:04.095Z,4.73
2022-08-22T07:32:43.220Z,4.57
2022-08-22T07:35:15.699Z,4.90
2022-08-22T07:37:58.030Z,4.70
2022-08-22T07:40:33.421Z,5.37
2022-08-22T07:43:08.465Z,4.50
2022-08-22T07:45:39.745Z,4.77
2022-08-22T07:48:25.579Z,4.10
2022-08-22T07:51:04.582Z,4.10
2022-08-22T07:53:40.361Z,4.23
2022-08-22T07:56:17.479Z,4.17
2022-08-22T07:58:48.727Z,3.50
2022-08-22T08:01:20.705Z,4.20
2022-08-22T08:03:54.462Z,4.80
2022-08-22T08:06:24.386Z,3.53
2022-08-22T08:08:53.219Z,3.80
2022-08-22T08:11:24.373Z,3.07
2022-08-22T08:13:55.684Z,4.00
2022-08-22T08:16:28.484Z,2.80
2022-08-22T08:19:00.271Z,2.93
2022-08-22T08:21:31.651Z,2.97
2022-08-22T08:24:01.699Z,3.07
2022-08-22T08:26:34.704Z,2.87
2022-08-22T08:29:03.536Z,2.73
2022-08-22T08:31:35.441Z,3.13
2022-08-22T08:34:07.967Z,3.00
2022-08-22T08:36:40.212Z,2.57
2022-08-22T08:39:20.233Z,3.10
2022-08-22T08:42:07.941Z,3.43
2022-08-22T08:44:52.861Z,2.80
2022-08-22T08:47:37.145Z,2.47
2022-08-22T08:50:34.505Z,3.27
2022-08-22T08:53:33.911Z,3.07
2022-08-22T08:56:08.144Z,3.33
2022-08-22T08:58:47.548Z,4.10
2022-08-22T09:01:36.546Z,3.87
2022-08-22T09:04:25.805Z,3.37
2022-08-22T09:07:25.820Z,3.50
2022-08-22T09:10:14.333Z,2.80
2022-08-22T09:13:11.112Z,3.23
2022-08-22T09:16:04.989Z,2.83
2022-08-22T09:18:49.618Z,3.13
2022-08-22T09:21:31.314Z,2.90
2022-08-22T09:24:43.903Z,2.90
2022-08-22T09:27:18.130Z,2.47
2022-08-22T09:29:59.613Z,2.30
2022-08-22T09:32:49.147Z,2.90
2022-08-22T09:35:26.080Z,3.07
2022-08-22T09:38:16.478Z,2.50
2022-08-22T09:40:53.644Z,2.30
2022-08-22T09:43:30.266Z,2.40
2022-08-22T09:46:11.855Z,2.20
2022-08-22T09:48:57.197Z,2.33
2022-08-22T09:51:37.295Z,2.43
2022-08-22T09:54:31.425Z,2.70
2022-08-22T09:57:08.051Z,2.13
2022-08-22T10:00:13.513Z,1.77
2022-08-22T10:02:51.484Z,2.00
2022-08-22T10:05:40.729Z,1.90
2022-08-22T10:08:27.151Z,2.50
2022-08-22T10:11:07.196Z,3.03
2022-08-22T10:13:46.307Z,2.40
2022-08-22T10:16:26.444Z,2.23
2022-08-22T10:19:09.459Z,2.30
2022-08-22T10:21:48.171Z,2.20
2022-08-22T10:24:27.143Z,1.90
2022-08-22T10:26:58.673Z,2.10
2022-08-22T10:29:41.823Z,3.00
2022-08-22T10:32:27.127Z,2.17
2022-08-22T10:35:00.604Z,2.23
2022-08-22T10:37:37.559Z,1.87
2022-08-22T10:40:14.468Z,2.03
2022-08-22T10:42:48.094Z,2.33
2022-08-22T10:45:36.669Z,2.10
2022-08-22T10:48:28.820Z,2.60
2022-08-22T10:51:08.917Z,1.80
2022-08-22T10:53:56.783Z,2.20
2022-08-22T10:56:30.227Z,2.20
2022-08-22T10:59:16.235Z,2.50
2022-08-22T11:01:53.354Z,2.63
2022-08-22T11:04:36.385Z,2.73
2022-08-22T11:07:21.496Z,2.50
2022-08-22T11:09:59.561Z,2.60
2022-08-22T11:12:36.519Z,2.50
2022-08-22T11:15:28.453Z,2.37
2022-08-22T11:18:21.528Z,2.80
2022-08-22T11:21:00.090Z,2.70
2022-08-22T11:23:40.011Z,2.43
2022-08-22T11:26:33.525Z,2.30
2022-08-22T11:29:33.887Z,2.73
2022-08-22T11:32:08.181Z,2.70
2022-08-22T11:34:48.316Z,2.83
2022-08-22T11:37:42.956Z,2.60
2022-08-22T11:40:24.608Z,2.37
2022-08-22T11:43:04.675Z,3.07
2022-08-22T11:45:45.747Z,2.60
2022-08-22T11:48:22.749Z,3.00
2022-08-22T11:50:58.423Z,2.70
2022-08-22T11:53:35.440Z,3.00
2022-08-22T11:56:17.841Z,2.53
2022-08-22T11:58:55.581Z,1.80
2022-08-22T12:01:34.688Z,2.13
2022-08-22T12:04:10.693Z,3.23
2022-08-22T12:06:59.143Z,2.83
2022-08-22T12:09:38.601Z,2.60
2022-08-22T12:12:21.190Z,2.73
2022-08-22T12:14:59.689Z,2.70
2022-08-22T12:18:00.914Z,2.33
2022-08-22T12:20:48.764Z,3.20
2022-08-22T12:23:48.514Z,2.53
2022-08-22T12:26:28.381Z,2.40
2022-08-22T12:29:15.738Z,2.60
2022-08-22T12:32:27.445Z,2.30
2022-08-22T12:35:14.001Z,2.67
2022-08-22T12:37:52.725Z,2.23
2022-08-22T12:40:32.926Z,2.20
2022-08-22T12:43:18.953Z,2.40
2022-08-22T12:46:13.082Z,2.27
2022-08-22T12:49:17.832Z,3.17
2022-08-22T12:52:08.711Z,2.33
2022-08-22T12:54:51.147Z,2.50
2022-08-22T12:57:27.390Z,2.50
2022-08-22T13:00:01.895Z,2.57
2022-08-22T13:02:34.968Z,3.00
2022-08-22T13:05:13.632Z,2.67
2022-08-22T13:07:54.391Z,2.57
2022-08-22T13:10:39.111Z,2.23
2022-08-22T13:13:12.405Z,2.30
2022-08-22T13:15:47.056Z,2.50
2022-08-22T13:18:30.302Z,2.40
2022-08-22T13:21:05.168Z,2.10
2022-08-22T13:23:39.977Z,2.67
2022-08-22T13:26:16.457Z,3.17
2022-08-22T13:29:24.434Z,2.30
2022-08-22T13:31:58.926Z,2.50
2022-08-22T13:34:40.135Z,2.57
2022-08-22T13:37:15.840Z,2.90
2022-08-22T13:39:46.821Z,2.27
2022-08-22T13:42:20.398Z,2.70
2022-08-22T13:45:02.662Z,3.00
2022-08-22T13:47:34.316Z,2.60
2022-08-22T13:50:12.752Z,3.13
2022-08-22T13:52:52.224Z,2.70
2022-08-22T13:55:30.569Z,2.50
2022-08-22T13:58:03.242Z,2.73
2022-08-22T14:01:02.699Z,2.10
2022-08-22T14:03:40.865Z,2.50
2022-08-22T14:06:35.368Z,2.70
2022-08-22T14:09:15.048Z,2.73
2022-08-22T14:11:50.103Z,2.77
2022-08-22T14:14:27.447Z,2.43
2022-08-22T14:16:58.883Z,3.13
2022-08-22T14:19:38.278Z,2.73
2022-08-22T14:22:31.763Z,2.60
2022-08-22T14:25:05.250Z,2.03
2022-08-22T14:27:39.720Z,2.50
2022-08-22T14:30:15.683Z,3.30
2022-08-22T14:32:48.670Z,2.73
2022-08-22T14:35:34.858Z,2.50
2022-08-22T14:38:27.262Z,2.73
2022-08-22T14:41:07.893Z,2.60
2022-08-22T14:43:50.682Z,2.60
2022-08-22T14:46:24.059Z,2.70
2022-08-22T14:49:16.203Z,3.30
2022-08-22T14:51:50.837Z,2.20
2022-08-22T14:54:21.982Z,2.90
2022-08-22T14:56:54.142Z,2.60
2022-08-22T14:59:38.006Z,2.63
2022-08-22T15:02:10.323Z,2.73
2022-08-22T15:04:41.683Z,2.40
2022-08-22T15:07:11.544Z,3.10
2022-08-22T15:09:44.220Z,3.07
2022-08-22T15:12:27.085Z,2.63
2022-08-22T15:14:58.947Z,2.83
2022-08-22T15:17:44.565Z,2.60
2022-08-22T15:20:27.926Z,2.70
2022-08-22T15:22:58.276Z,2.80
2022-08-22T15:25:31.259Z,3.17
2022-08-22T15:28:05.764Z,2.70
2022-08-22T15:30:38.833Z,3.00
2022-08-22T15:33:16.604Z,3.00
2022-08-22T15:35:47.593Z,3.10
2022-08-22T15:38:28.972Z,2.63
2022-08-22T15:41:17.453Z,2.83
2022-08-22T15:43:50.045Z,2.10
2022-08-22T15:46:29.380Z,2.33
2022-08-22T15:49:01.687Z,2.53
2022-08-22T15:51:42.957Z,3.10
2022-08-22T15:54:24.632Z,2.60
2022-08-22T15:57:16.165Z,4.07
2022-08-22T15:59:55.851Z,2.70
2022-08-22T16:02:35.198Z,3.00
2022-08-22T16:05:22.922Z,3.10
2022-08-22T16:08:02.591Z,3.20
2022-08-22T16:10:35.959Z,3.17
2022-08-22T16:13:15.577Z,2.93
2022-08-22T16:16:04.404Z,2.70
2022-08-22T16:19:16.117Z,3.13
2022-08-22T16:22:07.542Z,3.27
2022-08-22T16:24:57.888Z,2.60
2022-08-22T16:27:27.917Z,3.10
2022-08-22T16:30:13.073Z,3.43
2022-08-22T16:32:53.840Z,2.90
2022-08-22T16:35:54.910Z,3.10
2022-08-22T16:38:26.615Z,3.00
2022-08-22T16:40:54.548Z,2.70
2022-08-22T16:43:23.098Z,3.03
2022-08-22T16:45:56.844Z,2.60
2022-08-22T16:48:33.286Z,2.70
2022-08-22T16:51:12.031Z,3.27
2022-08-22T16:54:09.990Z,2.47
2022-08-22T16:56:53.084Z,2.90
2022-08-22T16:59:45.433Z,2.93
2022-08-22T17:02:49.123Z,3.00
2022-08-22T17:05:36.889Z,3.10
2022-08-22T17:08:26.164Z,2.90
2022-08-22T17:11:03.040Z,2.90
2022-08-22T17:13:52.972Z,2.80
2022-08-22T17:16:42.686Z,2.63
2022-08-22T17:19:22.452Z,3.17
2022-08-22T17:21:56.643Z,3.13
2022-08-22T17:24:34.875Z,2.90
2022-08-22T17:27:08.680Z,2.83
2022-08-22T17:29:50.407Z,2.67
2022-08-22T17:32:26.034Z,3.77
2022-08-22T17:35:00.008Z,3.10
2022-08-22T17:37:45.439Z,3.23
2022-08-22T17:40:29.115Z,2.87
2022-08-22T17:43:28.123Z,2.40
2022-08-22T17:46:24.919Z,2.87
2022-08-22T17:48:56.429Z,3.13
2022-08-22T17:51:31.463Z,3.43
2022-08-22T17:54:07.440Z,2.97
2022-08-22T17:56:44.142Z,2.50
2022-08-22T17:59:20.972Z,2.50
2022-08-22T18:01:55.834Z,2.53
2022-08-22T18:04:33.516Z,2.70
2022-08-22T18:07:28.136Z,2.97
2022-08-22T18:10:02.979Z,3.13
2022-08-22T18:12:35.680Z,3.10
2022-08-22T18:15:09.545Z,3.30
2022-08-22T18:17:42.604Z,3.07
2022-08-22T18:20:14.566Z,2.53
2022-08-22T18:22:47.559Z,3.17
2022-08-22T18:25:36.824Z,2.60
2022-08-22T18:28:10.813Z,3.17
2022-08-22T18:30:51.784Z,2.97
2022-08-22T18:33:28.375Z,3.60
2022-08-22T18:36:06.306Z,2.63
2022-08-22T18:38:45.544Z,2.60
2022-08-22T18:41:27.232Z,3.23
2022-08-22T18:43:56.139Z,3.10
2022-08-22T18:46:40.333Z,3.67
2022-08-22T18:49:16.031Z,2.70
2022-08-22T18:51:44.442Z,3.30
2022-08-22T18:54:37.542Z,3.50
2022-08-22T18:57:30.373Z,3.40
2022-08-22T19:00:08.778Z,3.93
2022-08-22T19:02:57.623Z,4.10
2022-08-22T19:05:40.856Z,3.40
2022-08-22T19:08:34.519Z,3.20
2022-08-22T19:11:16.869Z,3.47
2022-08-22T19:14:01.925Z,3.20
2022-08-22T19:16:52.014Z,2.67
2022-08-22T19:19:24.171Z,4.70
2022-08-22T19:22:23.618Z,3.03
2022-08-22T19:25:20.217Z,3.00
2022-08-22T19:28:26.716Z,2.77
2022-08-22T19:31:24.878Z,2.90
2022-08-22T19:34:15.552Z,3.10
2022-08-22T19:36:45.520Z,2.97
2022-08-22T19:39:50.524Z,3.10
2022-08-22T19:42:39.822Z,3.20
2022-08-22T19:45:22.917Z,2.80
2022-08-22T19:47:57.843Z,3.10
2022-08-22T19:50:31.023Z,3.00
2022-08-22T19:53:18.389Z,3.30
2022-08-22T19:55:59.434Z,3.37
2022-08-22T19:58:38.167Z,2.60
2022-08-22T20:01:39.622Z,2.90
2022-08-22T20:04:20.480Z,4.33
2022-08-22T20:06:59.036Z,3.10
2022-08-22T20:09:38.842Z,4.07
2022-08-22T20:12:15.726Z,3.10
2022-08-22T20:14:45.595Z,3.40
2022-08-22T20:17:41.309Z,3.07
2022-08-22T20:20:18.521Z,3.17
2022-08-22T20:22:52.931Z,3.00
2022-08-22T20:25:41.783Z,3.40
2022-08-22T20:28:30.376Z,2.50
2022-08-22T20:31:00.437Z,2.63
2022-08-22T20:33:36.774Z,2.97
2022-08-22T20:36:18.565Z,2.60
2022-08-22T20:39:00.403Z,3.60
2022-08-22T20:41:33.381Z,3.00
2022-08-22T20:44:09.004Z,3.30
2022-08-22T20:46:53.471Z,3.20
2022-08-22T20:49:26.653Z,2.90
2022-08-22T20:51:57.900Z,3.43
2022-08-22T20:54:27.703Z,3.40
2022-08-22T20:56:57.570Z,3.77
2022-08-22T20:59:35.868Z,3.10
2022-08-22T21:02:15.973Z,3.37
2022-08-22T21:04:51.269Z,3.03
2022-08-22T21:07:29.202Z,3.20
2022-08-22T21:10:22.347Z,3.50
2022-08-22T21:13:13.614Z,3.13
2022-08-22T21:15:44.225Z,3.50
2022-08-22T21:18:13.247Z,3.40
2022-08-22T21:20:42.891Z,3.87
2022-08-22T21:23:20.673Z,3.27
2022-08-22T21:25:51.945Z,4.23
2022-08-22T21:28:31.987Z,3.60
2022-08-22T21:31:01.706Z,3.23
2022-08-22T21:33:29.382Z,3.00
2022-08-22T21:36:01.089Z,3.70
2022-08-22T21:38:29.330Z,3.10
2022-08-22T21:41:02.954Z,3.73
2022-08-22T21:43:36.712Z,3.80
2022-08-22T21:46:05.078Z,3.80
2022-08-22T21:48:41.143Z,3.33
2022-08-22T21:51:40.785Z,3.60
2022-08-22T21:54:40.568Z,3.80
2022-08-22T21:57:34.314Z,3.33
2022-08-22T22:00:02.397Z,3.60
2022-08-22T22:02:42.472Z,3.80
2022-08-22T22:05:13.905Z,4.40
2022-08-22T22:07:46.138Z,4.17
2022-08-22T22:10:16.432Z,4.00
2022-08-22T22:12:46.154Z,4.10
2022-08-22T22:15:18.193Z,4.10
2022-08-22T22:17:46.289Z,3.40
2022-08-22T22:20:16.183Z,3.33
2022-08-22T22:22:46.578Z,4.27
2022-08-22T22:25:39.884Z,3.93
2022-08-22T22:28:05.294Z,3.93
2022-08-22T22:30:33.094Z,4.30
2022-08-22T22:33:00.932Z,3.77
2022-08-22T22:35:28.733Z,4.73
2022-08-22T22:37:57.922Z,4.30
2022-08-22T22:40:25.825Z,3.97
2022-08-22T22:42:53.557Z,4.13
2022-08-22T22:45:21.286Z,3.80
2022-08-22T22:47:48.965Z,4.20
2022-08-22T22:50:16.644Z,4.17
2022-08-22T22:52:44.346Z,3.83
2022-08-22T22:55:25.117Z,4.80
2022-08-22T22:57:58.687Z,4.70
2022-08-22T23:00:30.865Z,4.67
2022-08-22T23:03:00.173Z,4.47
2022-08-22T23:05:29.634Z,5.10
2022-08-22T23:07:57.934Z,5.13
2022-08-22T23:10:27.575Z,4.27
2022-08-22T23:12:55.284Z,4.57
2022-08-22T23:15:23.014Z,4.83
2022-08-22T23:17:50.721Z,4.43
2022-08-22T23:20:18.973Z,4.83
2022-08-22T23:22:47.310Z,5.27
2022-08-22T23:25:14.999Z,5.17
2022-08-22T23:27:44.436Z,5.37
2022-08-22T23:30:16.320Z,4.63
2022-08-22T23:32:43.990Z,5.57
2022-08-22T23:35:11.658Z,4.83
2022-08-22T23:37:39.364Z,5.00
2022-08-22T23:40:09.333Z,5.30
2022-08-22T23:42:37.134Z,4.80
2022-08-22T23:45:07.230Z,5.50
2022-08-22T23:47:34.957Z,4.80
2022-08-22T23:50:04.328Z,4.50
2022-08-22T23:52:34.055Z,4.80
2022-08-22T23:55:01.701Z,4.93
2022-08-22T23:57:29.629Z,5.03
2022-08-22T23:59:58.510Z,5.43
